THA112 ZHCC-ZHHH
Flight info
| Callsign | THA112 |
|---|---|
| Flight time | 0h 50m |
| Altitude | 34100 |
| Route | DUD9Z DUDBI W37 ENLAB |
| Aircraft | A346/H-SDE2E3FGHIJ3J4J5M1RWXY/LB1D1 |
Departure
| Time | 2026-04-21 13:20 |
|---|---|
| Airport | Zhengzhou Xinzheng International Airport (ZHCC) |
Arrival
| Time | 2026-04-21 14:10 |
|---|---|
| Airport | Wuhan Tianhe International Airport (ZHHH) |
| Time | Latitude | Longitude | Altitude | Speed | Heading |
|---|---|---|---|---|---|
| 2026-04-21 13:08 | 34.53264 | 113.84973 | 513 ft | 0 kts | 202° |
| 2026-04-21 13:13 | 34.53275 | 113.84978 | 513 ft | 3 kts | 201° |
| 2026-04-21 13:13 | 34.53294 | 113.84986 | 513 ft | 3 kts | 197° |
| 2026-04-21 13:13 | 34.53313 | 113.84992 | 513 ft | 3 kts | 189° |
| 2026-04-21 13:13 | 34.53332 | 113.84994 | 513 ft | 3 kts | 178° |
| 2026-04-21 13:14 | 34.53349 | 113.84991 | 513 ft | 3 kts | 158° |
| 2026-04-21 13:14 | 34.53361 | 113.84983 | 513 ft | 3 kts | 130° |
| 2026-04-21 13:14 | 34.53366 | 113.84974 | 513 ft | 0 kts | 112° |
| 2026-04-21 13:15 | 34.53365 | 113.84977 | 513 ft | 3 kts | 112° |
| 2026-04-21 13:15 | 34.53346 | 113.85031 | 513 ft | 8 kts | 112° |
| 2026-04-21 13:15 | 34.53321 | 113.85107 | 513 ft | 12 kts | 109° |
| 2026-04-21 13:16 | 34.53307 | 113.85208 | 513 ft | 13 kts | 70° |
| 2026-04-21 13:16 | 34.53336 | 113.85314 | 512 ft | 15 kts | 95° |
| 2026-04-21 13:16 | 34.53296 | 113.85446 | 512 ft | 18 kts | 108° |
| 2026-04-21 13:16 | 34.53244 | 113.85596 | 512 ft | 21 kts | 111° |
| 2026-04-21 13:17 | 34.53183 | 113.85785 | 512 ft | 26 kts | 109° |
| 2026-04-21 13:17 | 34.53110 | 113.85995 | 512 ft | 28 kts | 115° |
| 2026-04-21 13:17 | 34.53030 | 113.86231 | 512 ft | 32 kts | 111° |
| 2026-04-21 13:17 | 34.52940 | 113.86490 | 511 ft | 34 kts | 112° |
| 2026-04-21 13:18 | 34.52847 | 113.86769 | 510 ft | 37 kts | 113° |
| 2026-04-21 13:18 | 34.52746 | 113.87063 | 511 ft | 38 kts | 112° |
| 2026-04-21 13:18 | 34.52675 | 113.87269 | 511 ft | 21 kts | 112° |
| 2026-04-21 13:18 | 34.52643 | 113.87377 | 511 ft | 16 kts | 112° |
| 2026-04-21 13:19 | 34.52589 | 113.87512 | 511 ft | 20 kts | 110° |
| 2026-04-21 13:19 | 34.52649 | 113.87643 | 507 ft | 35 kts | 21° |
| 2026-04-21 13:19 | 34.52801 | 113.87449 | 505 ft | 60 kts | 292° |
| 2026-04-21 13:19 | 34.53080 | 113.86630 | 501 ft | 147 kts | 292° |
| 2026-04-21 13:20 | 34.53533 | 113.85284 | 798 ft | 191 kts | 295° |
| 2026-04-21 13:20 | 34.54068 | 113.83765 | 1798 ft | 195 kts | 295° |
| 2026-04-21 13:20 | 34.54586 | 113.82256 | 3032 ft | 195 kts | 296° |
| 2026-04-21 13:20 | 34.55129 | 113.80676 | 3930 ft | 211 kts | 297° |
| 2026-04-21 13:21 | 34.55732 | 113.78976 | 4599 ft | 228 kts | 296° |
| 2026-04-21 13:21 | 34.56386 | 113.77132 | 5220 ft | 246 kts | 295° |
| 2026-04-21 13:21 | 34.57082 | 113.75147 | 5872 ft | 265 kts | 294° |
| 2026-04-21 13:21 | 34.57822 | 113.73016 | 6482 ft | 280 kts | 293° |
| 2026-04-21 13:22 | 34.58585 | 113.70811 | 6823 ft | 284 kts | 293° |
| 2026-04-21 13:22 | 34.59354 | 113.68584 | 6872 ft | 285 kts | 293° |
| 2026-04-21 13:22 | 34.59957 | 113.66298 | 6848 ft | 285 kts | 273° |
| 2026-04-21 13:22 | 34.59578 | 113.63973 | 6861 ft | 283 kts | 240° |
| 2026-04-21 13:23 | 34.58290 | 113.62208 | 6879 ft | 280 kts | 211° |
| 2026-04-21 13:23 | 34.56533 | 113.61214 | 6896 ft | 279 kts | 199° |
| 2026-04-21 13:23 | 34.54725 | 113.60363 | 6889 ft | 278 kts | 199° |
| 2026-04-21 13:23 | 34.52923 | 113.59499 | 6884 ft | 278 kts | 200° |
| 2026-04-21 13:24 | 34.51129 | 113.58616 | 6881 ft | 278 kts | 200° |
| 2026-04-21 13:24 | 34.49337 | 113.57718 | 6887 ft | 278 kts | 201° |
| 2026-04-21 13:24 | 34.47548 | 113.56814 | 6887 ft | 280 kts | 201° |
| 2026-04-21 13:24 | 34.45719 | 113.55887 | 7226 ft | 290 kts | 201° |
| 2026-04-21 13:25 | 34.43862 | 113.54944 | 8339 ft | 287 kts | 201° |
| 2026-04-21 13:25 | 34.42040 | 113.54007 | 9484 ft | 284 kts | 202° |
| 2026-04-21 13:25 | 34.40211 | 113.53057 | 10453 ft | 288 kts | 202° |
| 2026-04-21 13:25 | 34.38333 | 113.52082 | 11154 ft | 301 kts | 202° |
| 2026-04-21 13:26 | 34.36349 | 113.51061 | 11680 ft | 319 kts | 203° |
| 2026-04-21 13:26 | 34.34270 | 113.49993 | 12172 ft | 337 kts | 205° |
| 2026-04-21 13:26 | 34.32056 | 113.48846 | 12616 ft | 356 kts | 205° |
| 2026-04-21 13:26 | 34.29728 | 113.47635 | 13113 ft | 371 kts | 205° |
| 2026-04-21 13:27 | 34.27331 | 113.46394 | 13895 ft | 377 kts | 205° |
| 2026-04-21 13:27 | 34.24833 | 113.45368 | 14761 ft | 384 kts | 193° |
| 2026-04-21 13:27 | 34.22144 | 113.45243 | 15621 ft | 392 kts | 177° |
| 2026-04-21 13:27 | 34.19468 | 113.46073 | 16398 ft | 403 kts | 163° |
| 2026-04-21 13:28 | 34.16854 | 113.47340 | 17134 ft | 407 kts | 162° |
| 2026-04-21 13:28 | 34.14217 | 113.48635 | 17782 ft | 413 kts | 162° |
| 2026-04-21 13:28 | 34.11530 | 113.49948 | 18444 ft | 417 kts | 162° |
| 2026-04-21 13:28 | 34.08828 | 113.51263 | 19084 ft | 420 kts | 163° |
| 2026-04-21 13:29 | 34.06098 | 113.52586 | 19665 ft | 425 kts | 163° |
| 2026-04-21 13:29 | 34.03341 | 113.53920 | 20213 ft | 429 kts | 163° |
| 2026-04-21 13:29 | 34.00560 | 113.55265 | 20727 ft | 433 kts | 163° |
| 2026-04-21 13:29 | 33.97750 | 113.56620 | 21263 ft | 437 kts | 163° |
| 2026-04-21 13:30 | 33.94917 | 113.57986 | 21808 ft | 441 kts | 163° |
| 2026-04-21 13:30 | 33.92224 | 113.59284 | 22273 ft | 445 kts | 163° |
| 2026-04-21 13:30 | 33.89333 | 113.60678 | 22800 ft | 449 kts | 163° |
| 2026-04-21 13:30 | 33.86422 | 113.62080 | 23335 ft | 453 kts | 163° |
| 2026-04-21 13:31 | 33.83489 | 113.63491 | 23834 ft | 457 kts | 163° |
| 2026-04-21 13:31 | 33.80521 | 113.64918 | 24307 ft | 461 kts | 163° |
| 2026-04-21 13:31 | 33.77531 | 113.66353 | 24786 ft | 465 kts | 163° |
| 2026-04-21 13:31 | 33.74517 | 113.67801 | 25267 ft | 468 kts | 163° |
| 2026-04-21 13:32 | 33.71498 | 113.69339 | 25739 ft | 475 kts | 159° |
| 2026-04-21 13:32 | 33.68648 | 113.71432 | 26190 ft | 486 kts | 149° |
| 2026-04-21 13:32 | 33.66075 | 113.74133 | 26634 ft | 496 kts | 139° |
| 2026-04-21 13:32 | 33.63840 | 113.77340 | 27093 ft | 504 kts | 132° |
| 2026-04-21 13:33 | 33.61710 | 113.80705 | 27542 ft | 508 kts | 131° |
| 2026-04-21 13:33 | 33.59587 | 113.84114 | 27960 ft | 512 kts | 131° |
| 2026-04-21 13:33 | 33.57475 | 113.87500 | 28400 ft | 514 kts | 131° |
| 2026-04-21 13:33 | 33.55323 | 113.90928 | 29004 ft | 513 kts | 132° |
| 2026-04-21 13:34 | 33.53174 | 113.94335 | 29647 ft | 511 kts | 132° |
| 2026-04-21 13:34 | 33.51029 | 113.97719 | 30280 ft | 509 kts | 132° |
| 2026-04-21 13:34 | 33.48887 | 114.01087 | 30877 ft | 508 kts | 132° |
| 2026-04-21 13:34 | 33.46745 | 114.04447 | 31504 ft | 506 kts | 133° |
| 2026-04-21 13:35 | 33.44607 | 114.07797 | 32128 ft | 505 kts | 133° |
| 2026-04-21 13:35 | 33.42477 | 114.11134 | 32707 ft | 503 kts | 132° |
| 2026-04-21 13:35 | 33.40417 | 114.14537 | 33238 ft | 506 kts | 129° |
| 2026-04-21 13:35 | 33.38490 | 114.18093 | 33686 ft | 510 kts | 126° |
| 2026-04-21 13:36 | 33.36715 | 114.21795 | 34051 ft | 515 kts | 123° |
| 2026-04-21 13:36 | 33.35098 | 114.25641 | 34127 ft | 519 kts | 119° |
| 2026-04-21 13:36 | 33.32373 | 114.33690 | 34127 ft | 523 kts | 114° |
| 2026-04-21 13:37 | 33.29865 | 114.41865 | 34125 ft | 523 kts | 114° |
| 2026-04-21 13:37 | 33.27338 | 114.50030 | 34119 ft | 523 kts | 114° |
| 2026-04-21 13:38 | 33.24778 | 114.58192 | 34114 ft | 523 kts | 116° |
| 2026-04-21 13:38 | 33.23123 | 114.62021 | 34091 ft | 514 kts | 129° |
| 2026-04-21 13:38 | 33.20840 | 114.65240 | 34100 ft | 503 kts | 143° |
| 2026-04-21 13:39 | 33.18077 | 114.67730 | 34105 ft | 492 kts | 156° |
| 2026-04-21 13:39 | 33.15005 | 114.69422 | 34108 ft | 482 kts | 168° |
| 2026-04-21 13:39 | 33.11774 | 114.70303 | 34103 ft | 472 kts | 179° |
| 2026-04-21 13:39 | 33.08535 | 114.70393 | 34107 ft | 463 kts | 189° |
| 2026-04-21 13:40 | 33.02116 | 114.69736 | 34105 ft | 464 kts | 191° |
| 2026-04-21 13:40 | 32.95687 | 114.69074 | 34090 ft | 464 kts | 190° |
| 2026-04-21 13:41 | 32.89288 | 114.68447 | 34088 ft | 465 kts | 190° |
| 2026-04-21 13:41 | 32.82838 | 114.67833 | 34084 ft | 465 kts | 190° |
| 2026-04-21 13:42 | 32.76385 | 114.67224 | 34079 ft | 465 kts | 190° |
| 2026-04-21 13:42 | 32.69918 | 114.66614 | 34072 ft | 466 kts | 189° |
| 2026-04-21 13:43 | 32.63454 | 114.66006 | 34069 ft | 466 kts | 189° |
| 2026-04-21 13:43 | 32.56980 | 114.65397 | 34062 ft | 467 kts | 189° |
| 2026-04-21 13:44 | 32.50494 | 114.64787 | 34058 ft | 468 kts | 189° |
| 2026-04-21 13:44 | 32.44000 | 114.64178 | 34052 ft | 468 kts | 189° |
| 2026-04-21 13:45 | 32.37685 | 114.63586 | 34052 ft | 468 kts | 189° |
| 2026-04-21 13:45 | 32.31238 | 114.62956 | 34008 ft | 469 kts | 189° |
| 2026-04-21 13:46 | 32.27984 | 114.62638 | 33746 ft | 468 kts | 189° |
| 2026-04-21 13:46 | 32.24971 | 114.62346 | 33481 ft | 466 kts | 189° |
| 2026-04-21 13:46 | 32.21743 | 114.62032 | 33113 ft | 464 kts | 189° |
| 2026-04-21 13:46 | 32.18540 | 114.61721 | 32680 ft | 461 kts | 189° |
| 2026-04-21 13:47 | 32.15337 | 114.61410 | 32129 ft | 462 kts | 189° |
| 2026-04-21 13:47 | 32.12557 | 114.61139 | 31588 ft | 462 kts | 189° |
| 2026-04-21 13:47 | 32.09348 | 114.60826 | 30915 ft | 463 kts | 189° |
| 2026-04-21 13:47 | 32.06141 | 114.60515 | 30236 ft | 463 kts | 188° |
| 2026-04-21 13:48 | 32.02929 | 114.60203 | 29537 ft | 464 kts | 188° |
| 2026-04-21 13:48 | 31.99706 | 114.59891 | 28796 ft | 465 kts | 188° |
| 2026-04-21 13:48 | 31.96469 | 114.59579 | 27996 ft | 467 kts | 188° |
| 2026-04-21 13:48 | 31.93228 | 114.59268 | 27328 ft | 467 kts | 188° |
| 2026-04-21 13:49 | 31.90012 | 114.58960 | 26836 ft | 462 kts | 188° |
| 2026-04-21 13:49 | 31.86822 | 114.58654 | 26293 ft | 458 kts | 188° |
| 2026-04-21 13:49 | 31.83653 | 114.58350 | 25734 ft | 455 kts | 188° |
| 2026-04-21 13:49 | 31.80508 | 114.58047 | 25232 ft | 450 kts | 188° |
| 2026-04-21 13:50 | 31.77402 | 114.57748 | 24749 ft | 446 kts | 188° |
| 2026-04-21 13:50 | 31.74323 | 114.57453 | 24274 ft | 441 kts | 188° |
| 2026-04-21 13:50 | 31.71274 | 114.57159 | 23794 ft | 437 kts | 188° |
| 2026-04-21 13:50 | 31.68254 | 114.56869 | 23343 ft | 433 kts | 188° |
| 2026-04-21 13:51 | 31.65265 | 114.56582 | 22900 ft | 428 kts | 188° |
| 2026-04-21 13:51 | 31.62312 | 114.56298 | 22477 ft | 424 kts | 188° |
| 2026-04-21 13:51 | 31.59388 | 114.56018 | 22068 ft | 419 kts | 188° |
| 2026-04-21 13:51 | 31.56494 | 114.55741 | 21659 ft | 415 kts | 188° |
| 2026-04-21 13:52 | 31.53630 | 114.55465 | 21240 ft | 410 kts | 188° |
| 2026-04-21 13:52 | 31.50834 | 114.55197 | 20822 ft | 406 kts | 188° |
| 2026-04-21 13:52 | 31.48032 | 114.54929 | 20407 ft | 402 kts | 188° |
| 2026-04-21 13:52 | 31.45251 | 114.54663 | 19997 ft | 398 kts | 188° |
| 2026-04-21 13:53 | 31.42502 | 114.54401 | 19595 ft | 394 kts | 188° |
| 2026-04-21 13:53 | 31.39780 | 114.54140 | 19199 ft | 391 kts | 188° |
| 2026-04-21 13:53 | 31.37080 | 114.53882 | 18785 ft | 387 kts | 188° |
| 2026-04-21 13:53 | 31.34389 | 114.53624 | 18368 ft | 384 kts | 188° |
| 2026-04-21 13:54 | 31.31726 | 114.53370 | 17953 ft | 381 kts | 188° |
| 2026-04-21 13:54 | 31.29089 | 114.53118 | 17544 ft | 379 kts | 188° |
| 2026-04-21 13:54 | 31.27361 | 114.52916 | 17262 ft | 375 kts | 192° |
| 2026-04-21 13:54 | 31.24879 | 114.52102 | 16843 ft | 367 kts | 205° |
| 2026-04-21 13:55 | 31.22657 | 114.50698 | 16423 ft | 361 kts | 217° |
| 2026-04-21 13:55 | 31.20716 | 114.48862 | 16017 ft | 358 kts | 222° |
| 2026-04-21 13:55 | 31.18844 | 114.46952 | 15593 ft | 356 kts | 223° |
| 2026-04-21 13:55 | 31.16993 | 114.45049 | 15163 ft | 354 kts | 223° |
| 2026-04-21 13:56 | 31.15146 | 114.43152 | 14752 ft | 351 kts | 223° |
| 2026-04-21 13:56 | 31.13315 | 114.41275 | 14329 ft | 350 kts | 223° |
| 2026-04-21 13:56 | 31.11491 | 114.39409 | 13920 ft | 347 kts | 223° |
| 2026-04-21 13:56 | 31.09677 | 114.37554 | 13524 ft | 345 kts | 222° |
| 2026-04-21 13:57 | 31.07873 | 114.35716 | 13105 ft | 343 kts | 222° |
| 2026-04-21 13:57 | 31.06076 | 114.33885 | 12679 ft | 341 kts | 222° |
| 2026-04-21 13:57 | 31.04295 | 114.32069 | 12267 ft | 339 kts | 222° |
| 2026-04-21 13:57 | 31.02526 | 114.30268 | 11859 ft | 336 kts | 222° |
| 2026-04-21 13:58 | 31.00768 | 114.28477 | 11453 ft | 334 kts | 222° |
| 2026-04-21 13:58 | 30.99025 | 114.26704 | 11023 ft | 333 kts | 222° |
| 2026-04-21 13:58 | 30.97290 | 114.24937 | 10685 ft | 327 kts | 221° |
| 2026-04-21 13:58 | 30.95612 | 114.23231 | 10585 ft | 313 kts | 221° |
| 2026-04-21 13:59 | 30.94004 | 114.21599 | 10467 ft | 300 kts | 221° |
| 2026-04-21 13:59 | 30.92458 | 114.20030 | 10352 ft | 288 kts | 221° |
| 2026-04-21 13:59 | 30.90975 | 114.18526 | 10249 ft | 276 kts | 221° |
| 2026-04-21 13:59 | 30.89572 | 114.17104 | 10155 ft | 266 kts | 221° |
| 2026-04-21 14:00 | 30.88175 | 114.15688 | 10080 ft | 260 kts | 221° |
| 2026-04-21 14:00 | 30.86838 | 114.14332 | 9984 ft | 257 kts | 221° |
| 2026-04-21 14:00 | 30.85408 | 114.12882 | 9852 ft | 285 kts | 221° |
| 2026-04-21 14:00 | 30.83875 | 114.11328 | 9460 ft | 296 kts | 221° |
| 2026-04-21 14:01 | 30.82336 | 114.09768 | 9107 ft | 298 kts | 221° |
| 2026-04-21 14:01 | 30.80772 | 114.08183 | 8756 ft | 298 kts | 220° |
| 2026-04-21 14:01 | 30.79208 | 114.06601 | 8414 ft | 298 kts | 220° |
| 2026-04-21 14:01 | 30.77645 | 114.05023 | 8074 ft | 297 kts | 220° |
| 2026-04-21 14:02 | 30.76088 | 114.03451 | 7711 ft | 296 kts | 221° |
| 2026-04-21 14:02 | 30.74536 | 114.01883 | 7371 ft | 295 kts | 221° |
| 2026-04-21 14:02 | 30.72989 | 114.00321 | 7031 ft | 294 kts | 221° |
| 2026-04-21 14:03 | 30.69902 | 113.97207 | 6357 ft | 294 kts | 221° |
| 2026-04-21 14:03 | 30.68356 | 113.95651 | 6090 ft | 292 kts | 221° |
| 2026-04-21 14:03 | 30.66809 | 113.94096 | 6053 ft | 295 kts | 221° |
| 2026-04-21 14:03 | 30.65254 | 113.92540 | 5971 ft | 294 kts | 219° |
| 2026-04-21 14:04 | 30.63462 | 113.91435 | 5618 ft | 294 kts | 191° |
| 2026-04-21 14:04 | 30.61450 | 113.91590 | 5292 ft | 294 kts | 159° |
| 2026-04-21 14:04 | 30.59816 | 113.92971 | 4984 ft | 295 kts | 127° |
| 2026-04-21 14:04 | 30.58824 | 113.95050 | 4704 ft | 295 kts | 117° |
| 2026-04-21 14:05 | 30.57815 | 113.97122 | 4361 ft | 293 kts | 122° |
| 2026-04-21 14:05 | 30.56752 | 113.99129 | 4023 ft | 291 kts | 111° |
| 2026-04-21 14:05 | 30.56442 | 114.01422 | 3936 ft | 286 kts | 84° |
| 2026-04-21 14:05 | 30.57039 | 114.03534 | 3919 ft | 270 kts | 56° |
| 2026-04-21 14:06 | 30.58346 | 114.04980 | 3928 ft | 257 kts | 29° |
| 2026-04-21 14:06 | 30.59956 | 114.05872 | 3919 ft | 256 kts | 22° |
| 2026-04-21 14:06 | 30.61561 | 114.06773 | 3736 ft | 256 kts | 31° |
| 2026-04-21 14:06 | 30.63014 | 114.07967 | 3402 ft | 256 kts | 38° |
| 2026-04-21 14:07 | 30.64354 | 114.09295 | 3052 ft | 256 kts | 41° |
| 2026-04-21 14:07 | 30.65658 | 114.10661 | 2685 ft | 247 kts | 42° |
| 2026-04-21 14:07 | 30.66926 | 114.11986 | 2379 ft | 237 kts | 42° |
| 2026-04-21 14:07 | 30.68115 | 114.13214 | 2099 ft | 227 kts | 42° |
| 2026-04-21 14:08 | 30.69259 | 114.14390 | 1849 ft | 212 kts | 42° |
| 2026-04-21 14:08 | 30.70328 | 114.15490 | 1539 ft | 199 kts | 41° |
| 2026-04-21 14:08 | 30.71334 | 114.16527 | 1283 ft | 187 kts | 40° |
| 2026-04-21 14:08 | 30.72274 | 114.17493 | 1019 ft | 173 kts | 40° |
| 2026-04-21 14:09 | 30.73137 | 114.18379 | 827 ft | 159 kts | 39° |
| 2026-04-21 14:09 | 30.73951 | 114.19201 | 560 ft | 152 kts | 42° |
| 2026-04-21 14:09 | 30.74730 | 114.20034 | 369 ft | 151 kts | 40° |
| 2026-04-21 14:09 | 30.75524 | 114.20832 | 235 ft | 151 kts | 40° |
| 2026-04-21 14:10 | 30.76301 | 114.21621 | 115 ft | 137 kts | 40° |
| 2026-04-21 14:10 | 30.76844 | 114.22178 | 114 ft | 70 kts | 41° |
| 2026-04-21 14:10 | 30.77135 | 114.22465 | 113 ft | 36 kts | 29° |
| 2026-04-21 14:10 | 30.77303 | 114.22541 | 114 ft | 13 kts | 13° |
| 2026-04-21 14:11 | 30.77384 | 114.22510 | 114 ft | 14 kts | 284° |
| 2026-04-21 14:11 | 30.77369 | 114.22442 | 116 ft | 10 kts | 220° |
| 2026-04-21 14:11 | 30.77277 | 114.22357 | 113 ft | 20 kts | 221° |
| 2026-04-21 14:11 | 30.77175 | 114.22254 | 121 ft | 10 kts | 221° |
| 2026-04-21 14:12 | 30.77146 | 114.22225 | 113 ft | 8 kts | 221° |
| 2026-04-21 14:12 | 30.77079 | 114.22156 | 113 ft | 16 kts | 221° |
| 2026-04-21 14:12 | 30.77049 | 114.22061 | 114 ft | 13 kts | 303° |
| 2026-04-21 14:12 | 30.77123 | 114.22066 | 116 ft | 17 kts | 44° |
| 2026-04-21 14:13 | 30.77216 | 114.22128 | 113 ft | 12 kts | 339° |
| 2026-04-21 14:13 | 30.77227 | 114.22077 | 113 ft | 8 kts | 278° |
| 2026-04-21 14:13 | 30.77236 | 114.22015 | 116 ft | 0 kts | 280° |